createdAt,value
2023-01-28T00:00:26.618Z,100674.30
2023-01-28T00:02:59.085Z,100682.78
2023-01-28T00:05:31.594Z,100673.06
2023-01-28T00:08:04.293Z,100671.78
2023-01-28T00:10:40.194Z,100665.67
2023-01-28T00:13:15.018Z,100671.14
2023-01-28T00:15:47.585Z,100672.87
2023-01-28T00:18:21.081Z,100681.36
2023-01-28T00:21:04.375Z,100674.70
2023-01-28T00:23:38.767Z,100672.47
2023-01-28T00:26:16.178Z,100669.91
2023-01-28T00:28:48.950Z,100670.81
2023-01-28T00:31:23.913Z,100669.91
2023-01-28T00:33:57.459Z,100670.26
2023-01-28T00:36:29.981Z,100671.94
2023-01-28T00:39:02.407Z,100678.89
2023-01-28T00:41:34.868Z,100680.66
2023-01-28T00:44:10.249Z,100676.71
2023-01-28T00:46:42.741Z,100662.06
2023-01-28T00:49:15.179Z,100659.35
2023-01-28T00:51:49.071Z,100664.14
2023-01-28T00:54:22.075Z,100656.48
2023-01-28T00:56:54.525Z,100659.06
2023-01-28T00:59:28.295Z,100650.22
2023-01-28T01:02:02.450Z,100654.22
2023-01-28T01:04:35.412Z,100660.77
2023-01-28T01:07:08.173Z,100665.16
2023-01-28T01:09:41.217Z,100656.39
2023-01-28T01:12:13.790Z,100652.48
2023-01-28T01:14:47.393Z,100658.87
2023-01-28T01:17:22.509Z,100657.59
2023-01-28T01:19:55.241Z,100662.47
2023-01-28T01:22:28.164Z,100652.36
2023-01-28T01:25:00.488Z,100652.66
2023-01-28T01:27:33.802Z,100655.37
2023-01-28T01:30:08.718Z,100655.47
2023-01-28T01:32:41.782Z,100660.74
2023-01-28T01:35:14.878Z,100662.88
2023-01-28T01:37:48.100Z,100659.31
2023-01-28T01:40:20.549Z,100651.38
2023-01-28T01:42:52.994Z,100654.73
2023-01-28T01:45:25.303Z,100639.19
2023-01-28T01:48:14.027Z,100650.73
2023-01-28T01:50:59.005Z,100647.73
2023-01-28T01:53:31.561Z,100648.28
2023-01-28T01:56:06.198Z,100643.05
2023-01-28T01:58:40.651Z,100647.05
2023-01-28T02:01:13.259Z,100650.64
2023-01-28T02:04:08.237Z,100638.67
2023-01-28T02:06:40.719Z,100637.04
2023-01-28T02:09:35.533Z,100638.88
2023-01-28T02:12:15.227Z,100637.44
2023-01-28T02:14:54.532Z,100632.99
2023-01-28T02:17:27.191Z,100640.05
2023-01-28T02:20:09.650Z,100635.66
2023-01-28T02:22:53.109Z,100639.20
2023-01-28T02:26:20.470Z,100628.84
2023-01-28T02:29:23.974Z,100643.49
2023-01-28T02:32:07.256Z,100633.34
2023-01-28T02:34:51.520Z,100633.30
2023-01-28T02:37:31.230Z,100636.41
2023-01-28T02:40:13.603Z,100626.69
2023-01-28T02:42:46.189Z,100633.98
2023-01-28T02:45:50.057Z,100634.08
2023-01-28T02:48:24.005Z,100621.12
2023-01-28T02:51:01.213Z,100629.00
2023-01-28T02:53:43.734Z,100621.02
2023-01-28T02:56:38.805Z,100630.73
2023-01-28T02:59:37.493Z,100630.28
2023-01-28T03:02:34.072Z,100629.41
2023-01-28T03:05:21.079Z,100633.30
2023-01-28T03:07:53.687Z,100630.53
2023-01-28T03:10:27.501Z,100619.83
2023-01-28T03:13:18.036Z,100625.20
2023-01-28T03:16:08.834Z,100617.56
2023-01-28T03:19:09.132Z,100613.95
2023-01-28T03:22:02.227Z,100617.41
2023-01-28T03:24:57.006Z,100613.89
2023-01-28T03:28:11.599Z,100619.27
2023-01-28T03:31:13.355Z,100611.84
2023-01-28T03:34:05.613Z,100606.22
2023-01-28T03:36:53.947Z,100611.11
2023-01-28T03:39:31.624Z,100612.15
2023-01-28T03:42:12.071Z,100614.41
2023-01-28T03:45:03.384Z,100608.16
2023-01-28T03:47:35.918Z,100612.98
2023-01-28T03:50:11.322Z,100617.37
2023-01-28T03:52:45.444Z,100618.30
2023-01-28T03:55:31.775Z,100614.06
2023-01-28T03:58:05.912Z,100616.73
2023-01-28T04:00:41.147Z,100617.18
2023-01-28T04:03:17.533Z,100619.73
2023-01-28T04:06:03.676Z,100622.30
2023-01-28T04:08:54.777Z,100627.08
2023-01-28T04:11:31.862Z,100623.92
2023-01-28T04:14:06.489Z,100628.75
2023-01-28T04:16:43.794Z,100625.25
2023-01-28T04:19:17.161Z,100628.80
2023-01-28T04:21:50.118Z,100625.20
2023-01-28T04:24:23.932Z,100633.53
2023-01-28T04:26:56.682Z,100634.77
2023-01-28T04:29:30.131Z,100634.16
2023-01-28T04:32:04.295Z,100636.18
2023-01-28T04:34:41.298Z,100633.02
2023-01-28T04:37:15.772Z,100629.37
2023-01-28T04:39:49.851Z,100632.08
2023-01-28T04:42:24.222Z,100635.68
2023-01-28T04:44:58.341Z,100634.74
2023-01-28T04:47:47.859Z,100633.36
2023-01-28T04:50:34.768Z,100636.91
2023-01-28T04:53:11.918Z,100630.70
2023-01-28T04:55:54.803Z,100629.77
2023-01-28T04:58:27.768Z,100636.50
2023-01-28T05:01:02.385Z,100639.97
2023-01-28T05:03:36.544Z,100646.13
2023-01-28T05:06:11.007Z,100653.68
2023-01-28T05:08:50.788Z,100654.41
2023-01-28T05:11:24.672Z,100654.41
2023-01-28T05:13:59.242Z,100656.61
2023-01-28T05:16:34.314Z,100653.52
2023-01-28T05:19:07.765Z,100655.95
2023-01-28T05:21:48.115Z,100660.04
2023-01-28T05:24:21.780Z,100659.64
2023-01-28T05:26:54.276Z,100653.81
2023-01-28T05:29:26.592Z,100654.31
2023-01-28T05:31:59.047Z,100646.33
2023-01-28T05:34:31.390Z,100649.09
2023-01-28T05:37:05.908Z,100655.25
2023-01-28T05:39:40.411Z,100653.48
2023-01-28T05:42:15.451Z,100643.05
2023-01-28T05:44:49.481Z,100648.80
2023-01-28T05:47:23.676Z,100647.37
2023-01-28T05:49:57.306Z,100654.82
2023-01-28T05:52:47.188Z,100650.53
2023-01-28T05:55:24.965Z,100654.28
2023-01-28T05:57:57.557Z,100657.73
2023-01-28T06:00:31.873Z,100651.77
2023-01-28T06:03:04.951Z,100652.59
2023-01-28T06:05:38.437Z,100650.37
2023-01-28T06:08:11.937Z,100654.02
2023-01-28T06:10:44.812Z,100654.92
2023-01-28T06:13:17.282Z,100651.03
2023-01-28T06:16:04.918Z,100647.09
2023-01-28T06:18:54.520Z,100653.20
2023-01-28T06:21:29.650Z,100653.20
2023-01-28T06:24:02.531Z,100645.31
2023-01-28T06:26:35.438Z,100650.23
2023-01-28T06:29:09.372Z,100652.42
2023-01-28T06:31:42.074Z,100643.09
2023-01-28T06:34:15.565Z,100646.24
2023-01-28T06:36:48.252Z,100654.13
2023-01-28T06:39:22.533Z,100651.56
2023-01-28T06:41:55.002Z,100652.55
2023-01-28T06:44:27.835Z,100661.92
2023-01-28T06:47:00.581Z,100649.89
2023-01-28T06:49:33.195Z,100663.66
2023-01-28T06:52:05.884Z,100667.25
2023-01-28T06:54:38.367Z,100674.80
2023-01-28T06:57:10.972Z,100669.18
2023-01-28T06:59:43.606Z,100668.78
2023-01-28T07:02:15.965Z,100669.86
2023-01-28T07:04:48.255Z,100675.98
2023-01-28T07:07:20.643Z,100671.02
2023-01-28T07:09:53.159Z,100670.61
2023-01-28T07:12:25.948Z,100675.63
2023-01-28T07:14:58.404Z,100679.73
2023-01-28T07:17:31.083Z,100672.88
2023-01-28T07:20:05.404Z,100680.13
2023-01-28T07:22:39.941Z,100670.46
2023-01-28T07:25:13.197Z,100669.68
2023-01-28T07:27:53.930Z,100669.28
2023-01-28T07:30:26.938Z,100675.88
2023-01-28T07:33:20.467Z,100669.38
2023-01-28T07:35:53.041Z,100678.70
2023-01-28T07:38:25.589Z,100679.52
2023-01-28T07:40:57.929Z,100672.47
2023-01-28T07:43:32.086Z,100665.86
2023-01-28T07:46:04.708Z,100660.20
2023-01-28T07:48:37.156Z,100661.09
2023-01-28T07:51:09.682Z,100665.91
2023-01-28T07:53:42.057Z,100668.97
2023-01-28T07:56:14.389Z,100680.02
2023-01-28T07:58:46.965Z,100676.86
2023-01-28T08:01:19.956Z,100676.33
2023-01-28T08:03:52.915Z,100683.77
2023-01-28T08:06:25.588Z,100689.53
2023-01-28T08:08:58.366Z,100691.30
2023-01-28T08:11:30.952Z,100692.62
2023-01-28T08:14:03.622Z,100698.05
2023-01-28T08:16:36.199Z,100700.16
2023-01-28T08:19:08.940Z,100706.11
2023-01-28T08:21:41.339Z,100694.72
2023-01-28T08:24:13.951Z,100692.28
2023-01-28T08:26:46.390Z,100691.54
2023-01-28T08:29:18.957Z,100691.14
2023-01-28T08:31:51.356Z,100694.98
2023-01-28T08:34:23.967Z,100697.60
2023-01-28T08:36:56.494Z,100696.05
2023-01-28T08:39:28.875Z,100704.13
2023-01-28T08:42:01.229Z,100696.77
2023-01-28T08:44:33.939Z,100690.39
2023-01-28T08:47:06.965Z,100697.09
2023-01-28T08:49:39.555Z,100692.74
2023-01-28T08:52:12.187Z,100689.69
2023-01-28T08:54:44.508Z,100689.25
2023-01-28T08:57:17.365Z,100686.41
2023-01-28T08:59:49.901Z,100674.99
2023-01-28T09:02:31.567Z,100670.28
2023-01-28T09:04:57.694Z,100662.91
2023-01-28T09:07:30.174Z,100667.34
2023-01-28T09:10:02.900Z,100660.06
2023-01-28T09:12:35.542Z,100652.52
2023-01-28T09:15:10.257Z,100654.54
2023-01-28T09:17:42.890Z,100650.55
2023-01-28T09:20:16.322Z,100648.28
2023-01-28T09:22:49.203Z,100649.12
2023-01-28T09:25:22.057Z,100643.02
2023-01-28T09:27:54.513Z,100642.97
2023-01-28T09:30:27.063Z,100654.94
2023-01-28T09:32:59.606Z,100648.03
2023-01-28T09:35:32.024Z,100644.14
2023-01-28T09:38:05.025Z,100645.42
2023-01-28T09:40:45.636Z,100648.56
2023-01-28T09:43:27.709Z,100641.38
2023-01-28T09:46:05.992Z,100641.14
2023-01-28T09:48:52.846Z,100643.15
2023-01-28T09:51:41.632Z,100630.89
2023-01-28T09:57:49.905Z,100624.86
2023-01-28T10:00:30.112Z,100619.00
2023-01-28T10:03:41.280Z,100607.02
2023-01-28T10:06:49.034Z,100603.02
2023-01-28T10:09:45.675Z,100606.17
2023-01-28T10:12:52.958Z,100596.08
2023-01-28T10:15:33.092Z,100592.70
2023-01-28T10:18:17.487Z,100585.45
2023-01-28T10:20:56.855Z,100586.13
2023-01-28T10:23:42.844Z,100586.02
2023-01-28T10:26:25.613Z,100586.27
2023-01-28T10:29:01.787Z,100582.56
2023-01-28T10:31:38.936Z,100579.51
2023-01-28T10:34:12.535Z,100576.62
2023-01-28T10:36:45.298Z,100582.63
2023-01-28T10:39:21.420Z,100570.85
2023-01-28T10:41:58.710Z,100564.72
2023-01-28T10:44:39.951Z,100562.61
2023-01-28T10:47:20.257Z,100560.92
2023-01-28T10:49:55.501Z,100555.02
2023-01-28T10:52:28.181Z,100555.50
2023-01-28T10:55:05.732Z,100549.34
2023-01-28T10:57:38.392Z,100541.86
2023-01-28T11:00:24.193Z,100538.25
2023-01-28T11:02:56.738Z,100537.46
2023-01-28T11:05:30.875Z,100530.25
2023-01-28T11:08:18.207Z,100535.15
2023-01-28T11:10:50.667Z,100544.78
2023-01-28T11:13:28.962Z,100536.23
2023-01-28T11:16:15.870Z,100528.48
2023-01-28T11:19:05.502Z,100535.41
2023-01-28T11:21:38.818Z,100533.98
2023-01-28T11:24:22.150Z,100522.78
2023-01-28T11:26:56.635Z,100512.27
2023-01-28T11:29:32.571Z,100513.33
2023-01-28T11:32:04.923Z,100506.34
2023-01-28T11:34:37.302Z,100499.62
2023-01-28T11:37:16.818Z,100499.64
2023-01-28T11:39:49.303Z,100497.33
2023-01-28T11:42:23.154Z,100492.80
2023-01-28T11:44:55.440Z,100497.05
2023-01-28T11:47:38.559Z,100489.13
2023-01-28T11:50:19.183Z,100494.86
2023-01-28T11:53:22.164Z,100493.05
2023-01-28T11:56:11.133Z,100491.72
2023-01-28T11:59:16.829Z,100489.27
2023-01-28T12:01:53.425Z,100482.56
2023-01-28T12:04:51.454Z,100482.34
2023-01-28T12:07:40.840Z,100478.27
2023-01-28T12:10:23.626Z,100474.23
2023-01-28T12:13:39.418Z,100477.25
2023-01-28T12:16:25.953Z,100473.74
2023-01-28T12:19:24.211Z,100470.92
2023-01-28T12:22:07.732Z,100462.31
2023-01-28T12:25:19.414Z,100454.89
2023-01-28T12:28:05.441Z,100460.75
2023-01-28T12:31:24.304Z,100457.70
2023-01-28T12:34:37.975Z,100455.66
2023-01-28T12:37:30.583Z,100459.91
2023-01-28T12:40:19.737Z,100458.17
2023-01-28T12:42:59.383Z,100458.55
2023-01-28T12:45:42.354Z,100457.97
2023-01-28T12:48:25.296Z,100461.45
2023-01-28T12:51:27.170Z,100458.23
2023-01-28T12:54:25.000Z,100459.28
2023-01-28T12:56:57.527Z,100462.16
2023-01-28T12:59:49.810Z,100463.93
2023-01-28T13:02:33.157Z,100465.80
2023-01-28T13:05:22.212Z,100465.10
2023-01-28T13:08:13.416Z,100464.54
2023-01-28T13:10:47.646Z,100465.66
2023-01-28T16:23:09.408Z,100502.92
2023-01-28T16:25:42.294Z,100512.13
2023-01-28T16:28:20.294Z,100503.16
2023-01-28T16:30:52.785Z,100508.31
2023-01-28T16:33:25.954Z,100510.98
2023-01-28T16:36:08.240Z,100513.64
2023-01-28T16:38:34.320Z,100514.98
2023-01-28T16:41:13.866Z,100515.49
2023-01-28T16:43:46.404Z,100516.38
2023-01-28T16:46:19.210Z,100519.49
2023-01-28T16:48:52.370Z,100514.22
2023-01-28T16:51:24.806Z,100513.34
2023-01-28T16:53:58.045Z,100515.89
2023-01-28T16:56:47.141Z,100512.95
2023-01-28T16:59:05.440Z,100507.61
2023-01-28T17:01:37.881Z,100515.09
2023-01-28T17:04:12.568Z,100516.16
2023-01-28T17:06:45.365Z,100516.84
2023-01-28T17:09:18.432Z,100509.54
2023-01-28T17:11:50.990Z,100513.45
2023-01-28T17:14:24.293Z,100516.47
2023-01-28T17:16:57.837Z,100518.08
2023-01-28T17:19:31.448Z,100515.34
2023-01-28T17:22:03.970Z,100510.77
2023-01-28T17:24:36.820Z,100521.70
2023-01-28T17:27:09.893Z,100515.75
2023-01-28T17:29:42.371Z,100519.23
2023-01-28T17:32:15.018Z,100515.30
2023-01-28T17:34:49.501Z,100515.23
2023-01-28T17:37:22.445Z,100518.91
2023-01-28T17:39:54.961Z,100511.03
2023-01-28T17:42:28.381Z,100515.94
2023-01-28T17:45:02.658Z,100520.49
2023-01-28T17:47:35.642Z,100515.92
2023-01-28T17:50:08.470Z,100515.78
2023-01-28T17:52:42.159Z,100516.97
2023-01-28T17:55:15.974Z,100513.91
2023-01-28T17:57:48.912Z,100514.98
2023-01-28T18:00:23.287Z,100517.77
2023-01-28T18:02:56.731Z,100511.62
2023-01-28T18:05:29.143Z,100521.08
2023-01-28T18:08:01.611Z,100524.25
2023-01-28T18:10:34.212Z,100517.25
2023-01-28T18:13:06.734Z,100518.25
2023-01-28T18:15:40.423Z,100525.44
2023-01-28T18:18:13.052Z,100522.89
2023-01-28T18:20:45.654Z,100524.71
2023-01-28T18:23:18.187Z,100529.28
2023-01-28T18:25:51.327Z,100528.06
2023-01-28T18:28:23.814Z,100538.85
2023-01-28T18:30:56.787Z,100538.45
2023-01-28T18:33:31.238Z,100546.84
2023-01-28T18:36:06.549Z,100548.18
2023-01-28T18:38:39.186Z,100553.52
2023-01-28T18:41:11.618Z,100554.84
2023-01-28T18:43:44.634Z,100550.79
2023-01-28T18:46:19.110Z,100553.28
2023-01-28T18:48:51.768Z,100555.44
2023-01-28T18:51:31.201Z,100552.65
2023-01-28T18:54:04.097Z,100554.65
2023-01-28T18:56:36.728Z,100549.59
2023-01-28T18:59:11.152Z,100549.34
2023-01-28T19:01:44.049Z,100550.44
2023-01-28T19:04:16.771Z,100540.59
2023-01-28T19:06:49.451Z,100534.64
2023-01-28T19:09:22.207Z,100533.80
2023-01-28T19:11:54.710Z,100535.58
2023-01-28T19:14:27.982Z,100532.03
2023-01-28T19:17:00.548Z,100536.28
2023-01-28T19:19:33.299Z,100536.67
2023-01-28T19:22:05.833Z,100533.81
2023-01-28T19:24:38.477Z,100530.60
2023-01-28T19:27:10.963Z,100540.23
2023-01-28T19:29:44.248Z,100540.62
2023-01-28T19:32:16.859Z,100549.03
2023-01-28T19:34:49.948Z,100549.03
2023-01-28T19:37:23.651Z,100540.50
2023-01-28T19:39:56.398Z,100548.91
2023-01-28T19:42:28.675Z,100540.50
2023-01-28T19:45:03.988Z,100547.17
2023-01-28T19:47:35.918Z,100548.91
2023-01-28T19:50:10.098Z,100551.70
2023-01-28T19:52:43.479Z,100549.58
2023-01-28T19:55:16.170Z,100552.25
2023-01-28T19:57:51.008Z,100546.16
2023-01-28T20:00:23.601Z,100554.34
2023-01-28T20:02:55.949Z,100552.67
2023-01-28T20:05:28.314Z,100557.80
2023-01-28T20:08:00.936Z,100557.92
2023-01-28T20:10:34.209Z,100564.84
2023-01-28T20:13:08.126Z,100559.69
2023-01-28T20:15:41.264Z,100568.63
2023-01-28T20:18:13.596Z,100559.23
2023-01-28T20:20:55.671Z,100553.08
2023-01-28T20:23:28.555Z,100554.92
2023-01-28T20:26:04.027Z,100552.80
2023-01-28T20:28:36.784Z,100559.08
2023-01-28T20:31:10.665Z,100559.20
2023-01-28T20:33:43.017Z,100559.04
2023-01-28T20:36:16.318Z,100562.84
2023-01-28T20:38:50.358Z,100557.69
2023-01-28T20:41:24.994Z,100554.30
2023-01-28T20:43:57.301Z,100559.90
2023-01-28T20:46:33.372Z,100555.52
2023-01-28T20:49:10.259Z,100555.41
2023-01-28T20:51:44.397Z,100555.19
2023-01-28T20:54:18.459Z,100560.74
2023-01-28T20:56:51.634Z,100555.53
2023-01-28T20:59:24.307Z,100557.03
2023-01-28T21:01:56.762Z,100548.27
2023-01-28T21:04:29.827Z,100549.37
2023-01-28T21:07:02.936Z,100545.92
2023-01-28T21:09:36.399Z,100550.98
2023-01-28T21:12:09.617Z,100546.66
2023-01-28T21:14:42.643Z,100549.42
2023-01-28T21:17:15.659Z,100545.88
2023-01-28T21:19:48.626Z,100546.77
2023-01-28T21:22:21.249Z,100546.20
2023-01-28T21:24:54.216Z,100549.31
2023-01-28T21:27:26.659Z,100544.92
2023-01-28T21:29:59.106Z,100545.88
2023-01-28T21:32:31.969Z,100550.81
2023-01-28T21:35:04.668Z,100550.98
2023-01-28T21:37:39.142Z,100548.97
2023-01-28T21:40:14.343Z,100557.95
2023-01-28T21:42:47.875Z,100557.52
2023-01-28T21:45:20.597Z,100555.90
2023-01-28T21:47:54.419Z,100554.33
2023-01-28T21:50:27.430Z,100552.77
2023-01-28T21:52:59.821Z,100558.48
2023-01-28T21:55:32.244Z,100559.31
2023-01-28T21:58:06.620Z,100563.70
2023-01-28T22:00:38.532Z,100560.22
